createdAt,value
2018-09-20T00:01:59.203Z,7.40
2018-09-20T00:04:28.283Z,6.50
2018-09-20T00:06:57.401Z,6.83
2018-09-20T00:09:26.399Z,6.70
2018-09-20T00:11:55.415Z,7.07
2018-09-20T00:14:24.422Z,6.80
2018-09-20T00:16:53.414Z,6.93
2018-09-20T00:19:22.475Z,7.00
2018-09-20T00:21:51.535Z,6.83
2018-09-20T00:24:20.784Z,6.50
2018-09-20T00:26:49.799Z,7.10
2018-09-20T00:29:18.836Z,7.00
2018-09-20T00:31:47.847Z,7.07
2018-09-20T00:34:16.879Z,6.80
2018-09-20T00:36:46.043Z,6.80
2018-09-20T00:39:15.160Z,6.90
2018-09-20T00:41:44.160Z,6.63
2018-09-20T00:44:13.205Z,7.23
2018-09-20T00:46:42.212Z,7.10
2018-09-20T00:49:11.244Z,7.27
2018-09-20T00:51:40.247Z,7.07
2018-09-20T00:54:09.297Z,6.80
2018-09-20T00:56:38.286Z,6.70
2018-09-20T00:59:07.313Z,7.20
2018-09-20T01:01:36.330Z,6.90
2018-09-20T01:04:05.887Z,7.03
2018-09-20T01:06:34.898Z,7.27
2018-09-20T01:09:05.683Z,7.10
2018-09-20T01:11:34.695Z,6.83
2018-09-20T01:14:03.707Z,6.53
2018-09-20T01:16:32.722Z,7.03
2018-09-20T01:19:01.824Z,6.90
2018-09-20T01:21:30.876Z,7.20
2018-09-20T01:23:59.907Z,7.33
2018-09-20T01:26:28.943Z,7.40
2018-09-20T01:28:57.950Z,7.40
2018-09-20T01:31:26.980Z,6.60
2018-09-20T01:33:55.991Z,7.50
2018-09-20T01:36:25.027Z,7.10
2018-09-20T01:38:54.042Z,7.37
2018-09-20T01:41:23.075Z,7.33
2018-09-20T01:43:52.104Z,7.53
2018-09-20T01:46:21.361Z,7.30
2018-09-20T01:48:50.372Z,7.07
2018-09-20T01:51:19.405Z,7.50
2018-09-20T01:53:48.420Z,6.93
2018-09-20T01:56:17.442Z,7.33
2018-09-20T01:58:47.038Z,7.23
2018-09-20T02:01:16.156Z,8.07
2018-09-20T02:03:45.152Z,7.53
2018-09-20T02:06:14.223Z,6.70
2018-09-20T02:08:43.315Z,7.37
2018-09-20T02:11:12.323Z,7.73
2018-09-20T02:13:41.406Z,7.10
2018-09-20T02:16:10.434Z,6.80
2018-09-20T02:18:39.447Z,7.33
2018-09-20T02:21:08.485Z,7.40
2018-09-20T02:23:37.513Z,7.47
2018-09-20T02:26:06.539Z,7.53
2018-09-20T02:28:35.555Z,7.43
2018-09-20T02:31:04.583Z,7.43
2018-09-20T02:33:33.616Z,7.63
2018-09-20T02:36:03.315Z,6.97
2018-09-20T02:38:32.328Z,7.17
2018-09-20T02:41:01.456Z,7.50
2018-09-20T02:43:30.471Z,7.17
2018-09-20T02:45:59.531Z,7.47
2018-09-20T02:48:28.867Z,7.93
2018-09-20T02:50:57.895Z,8.00
2018-09-20T02:53:26.959Z,7.77
2018-09-20T02:55:55.965Z,7.53
2018-09-20T02:58:25.016Z,7.90
2018-09-20T03:00:54.034Z,7.60
2018-09-20T03:03:23.047Z,7.90
2018-09-20T03:05:52.069Z,7.60
2018-09-20T03:08:21.603Z,7.63
2018-09-20T03:10:50.715Z,7.83
2018-09-20T03:13:19.730Z,8.03
2018-09-20T03:15:48.752Z,7.93
2018-09-20T03:18:17.768Z,7.90
2018-09-20T03:20:46.800Z,8.40
2018-09-20T03:23:15.822Z,7.67
2018-09-20T03:25:44.844Z,7.80
2018-09-20T03:28:13.859Z,7.93
2018-09-20T03:30:43.075Z,8.40
2018-09-20T03:33:11.992Z,7.60
2018-09-20T03:35:41.006Z,8.47
2018-09-20T03:38:10.034Z,7.93
2018-09-20T03:40:39.050Z,8.00
2018-09-20T03:43:08.175Z,7.70
2018-09-20T03:45:37.208Z,8.13
2018-09-20T03:48:06.287Z,8.33
2018-09-20T03:50:35.314Z,8.07
2018-09-20T03:53:04.331Z,7.83
2018-09-20T03:55:33.447Z,8.23
2018-09-20T03:58:02.500Z,7.97
2018-09-20T04:00:31.499Z,8.00
2018-09-20T04:03:00.583Z,8.43
2018-09-20T04:05:29.600Z,8.00
2018-09-20T04:08:05.271Z,7.80
2018-09-20T04:10:34.439Z,8.20
2018-09-20T04:13:03.459Z,8.43
2018-09-20T04:15:32.469Z,8.50
2018-09-20T04:18:01.490Z,8.60
2018-09-20T04:20:30.651Z,8.37
2018-09-20T04:22:59.667Z,8.53
2018-09-20T04:25:28.756Z,8.87
2018-09-20T04:27:57.779Z,8.27
2018-09-20T04:30:26.795Z,8.80
2018-09-20T04:32:55.908Z,8.60
2018-09-20T04:35:25.107Z,9.00
2018-09-20T04:37:54.108Z,8.70
2018-09-20T04:40:23.352Z,9.30
2018-09-20T04:42:52.419Z,8.83
2018-09-20T04:45:21.439Z,8.57
2018-09-20T04:47:50.463Z,8.93
2018-09-20T04:50:19.479Z,8.67
2018-09-20T04:52:48.508Z,9.00
2018-09-20T04:55:17.508Z,8.50
2018-09-20T04:57:46.563Z,8.73
2018-09-20T05:00:15.668Z,9.10
2018-09-20T05:02:44.694Z,8.73
2018-09-20T05:05:13.723Z,9.00
2018-09-20T05:07:42.760Z,8.90
2018-09-20T05:10:11.859Z,8.83
2018-09-20T05:12:40.895Z,9.43
2018-09-20T05:15:09.925Z,8.63
2018-09-20T05:17:38.946Z,8.80
2018-09-20T05:20:07.963Z,9.13
2018-09-20T05:22:36.989Z,8.83
2018-09-20T05:25:06.115Z,8.40
2018-09-20T05:27:35.251Z,8.77
2018-09-20T05:30:04.667Z,9.93
2018-09-20T05:32:33.695Z,10.17
2018-09-20T05:35:02.799Z,8.83
2018-09-20T05:37:32.011Z,8.47
2018-09-20T05:40:01.099Z,8.67
2018-09-20T05:42:30.144Z,9.23
2018-09-20T05:44:59.169Z,9.53
2018-09-20T05:47:28.204Z,9.70
2018-09-20T05:49:57.224Z,9.23
2018-09-20T05:52:26.420Z,8.73
2018-09-20T05:54:55.512Z,9.07
2018-09-20T05:57:24.591Z,9.33
2018-09-20T05:59:53.803Z,8.90
2018-09-20T06:02:22.807Z,8.80
2018-09-20T06:04:51.855Z,8.93
2018-09-20T06:07:20.963Z,8.77
2018-09-20T06:09:50.007Z,8.97
2018-09-20T06:12:19.171Z,9.43
2018-09-20T06:14:48.199Z,8.83
2018-09-20T06:17:17.267Z,9.33
2018-09-20T06:19:46.284Z,8.10
2018-09-20T06:22:15.307Z,8.60
2018-09-20T06:24:44.387Z,8.80
2018-09-20T06:27:13.420Z,8.30
2018-09-20T06:29:42.447Z,8.73
2018-09-20T06:32:11.471Z,8.40
2018-09-20T06:34:40.588Z,8.33
2018-09-20T06:37:09.611Z,8.37
2018-09-20T06:39:38.642Z,8.40
2018-09-20T06:42:07.707Z,8.33
2018-09-20T06:44:36.738Z,8.50
2018-09-20T06:47:05.755Z,8.00
2018-09-20T06:49:34.792Z,8.27
2018-09-20T06:52:03.931Z,8.40
2018-09-20T06:54:32.952Z,8.37
2018-09-20T06:57:01.967Z,8.43
2018-09-20T06:59:31.114Z,7.60
2018-09-20T07:02:00.163Z,8.13
2018-09-20T07:04:29.183Z,9.17
2018-09-20T07:06:58.315Z,10.53
2018-09-20T07:09:27.352Z,11.00
2018-09-20T07:11:56.460Z,10.03
2018-09-20T07:14:25.695Z,9.67
2018-09-20T07:16:54.707Z,11.67
2018-09-20T07:19:23.828Z,10.70
2018-09-20T07:21:52.844Z,11.00
2018-09-20T07:24:22.003Z,11.73
2018-09-20T07:26:53.927Z,12.85
2018-09-20T07:29:23.099Z,12.85
2018-09-20T07:31:52.116Z,12.63
2018-09-20T07:34:21.155Z,12.43
2018-09-20T07:36:50.187Z,11.68
2018-09-20T07:39:19.271Z,12.60
2018-09-20T07:41:48.287Z,12.65
2018-09-20T07:44:17.388Z,12.45
2018-09-20T07:46:46.411Z,12.73
2018-09-20T07:49:15.512Z,12.73
2018-09-20T07:51:44.526Z,12.65
2018-09-20T07:54:13.573Z,12.58
2018-09-20T07:56:42.644Z,13.28
2018-09-20T07:59:11.644Z,12.75
2018-09-20T08:01:40.837Z,12.58
2018-09-20T08:04:10.453Z,12.73
2018-09-20T08:06:39.492Z,12.55
2018-09-20T08:09:10.422Z,12.18
2018-09-20T08:11:39.439Z,12.37
2018-09-20T08:14:08.467Z,13.62
2018-09-20T08:16:38.112Z,14.07
2018-09-20T08:19:07.583Z,12.53
2018-09-20T08:21:36.786Z,13.10
2018-09-20T08:24:05.946Z,11.53
2018-09-20T08:26:35.116Z,12.43
2018-09-20T08:29:04.155Z,12.65
2018-09-20T08:31:33.313Z,12.53
2018-09-20T08:34:02.332Z,12.35
2018-09-20T08:36:31.361Z,12.45
2018-09-20T08:39:00.459Z,12.68
2018-09-20T08:41:36.506Z,12.65
2018-09-20T08:44:05.835Z,12.25
2018-09-20T08:46:34.880Z,12.75
2018-09-20T08:49:03.900Z,12.75
2018-09-20T08:51:32.944Z,12.53
2018-09-20T08:54:02.007Z,11.83
2018-09-20T08:56:31.094Z,11.10
2018-09-20T08:59:00.296Z,11.97
2018-09-20T09:01:29.335Z,10.75
2018-09-20T09:03:58.355Z,10.75
2018-09-20T09:06:28.441Z,10.60
2018-09-20T09:08:57.932Z,10.18
2018-09-20T09:11:27.028Z,9.43
2018-09-20T09:13:56.032Z,8.65
2018-09-20T09:16:25.059Z,9.03
2018-09-20T09:18:54.111Z,9.23
2018-09-20T09:21:23.136Z,9.20
2018-09-20T09:23:52.149Z,8.15
2018-09-20T09:26:21.171Z,9.70
2018-09-20T09:28:50.280Z,7.80
2018-09-20T09:31:19.301Z,8.60
2018-09-20T09:33:48.314Z,8.45
2018-09-20T09:36:17.350Z,8.68
2018-09-20T09:38:54.650Z,8.83
2018-09-20T09:41:32.044Z,8.05
2018-09-20T09:44:21.865Z,8.25
2018-09-20T09:47:00.913Z,8.18
2018-09-20T09:49:45.721Z,7.90
2018-09-20T09:52:29.235Z,7.50
2018-09-20T09:55:09.198Z,7.95
2018-09-20T09:57:49.134Z,7.45
2018-09-20T10:00:32.838Z,7.45
2018-09-20T10:03:28.929Z,6.90
2018-09-20T10:06:08.920Z,7.20
2018-09-20T10:08:52.468Z,7.75
2018-09-20T10:11:37.144Z,6.87
2018-09-20T10:14:12.677Z,7.10
2018-09-20T10:17:07.824Z,7.70
2018-09-20T10:19:54.430Z,8.23
2018-09-20T10:22:33.183Z,8.05
2018-09-20T10:25:17.027Z,7.10
2018-09-20T10:27:53.830Z,7.42
2018-09-20T10:30:33.460Z,8.20
2018-09-20T10:33:15.992Z,6.95
2018-09-20T10:35:57.201Z,7.15
2018-09-20T10:38:37.166Z,7.03
2018-09-20T10:41:18.122Z,7.10
2018-09-20T10:43:55.864Z,6.87
2018-09-20T10:46:31.042Z,7.80
2018-09-20T10:49:12.923Z,7.37
2018-09-20T10:51:55.858Z,6.40
2018-09-20T10:54:40.404Z,6.53
2018-09-20T10:57:16.368Z,6.25
2018-09-20T10:59:51.039Z,6.22
2018-09-20T11:02:25.093Z,6.42
2018-09-20T11:05:06.083Z,6.40
2018-09-20T11:07:45.626Z,6.10
2018-09-20T11:10:33.555Z,6.08
2018-09-20T11:13:11.371Z,6.78
2018-09-20T11:15:46.521Z,6.83
2018-09-20T11:18:24.237Z,6.45
2018-09-20T11:21:03.380Z,6.35
2018-09-20T11:23:42.217Z,6.22
2018-09-20T11:26:17.692Z,6.15
2018-09-20T11:28:58.227Z,6.03
2018-09-20T11:31:37.733Z,5.97
2018-09-20T11:34:15.724Z,5.75
2018-09-20T11:36:54.338Z,6.30
2018-09-20T11:39:25.618Z,5.78
2018-09-20T11:42:00.783Z,6.58
2018-09-20T11:44:36.450Z,6.03
2018-09-20T11:47:10.319Z,5.62
2018-09-20T11:49:45.574Z,5.87
2018-09-20T11:52:20.756Z,5.58
2018-09-20T11:55:00.205Z,5.67
2018-09-20T11:57:40.401Z,6.17
2018-09-20T12:00:27.107Z,5.67
2018-09-20T12:03:11.084Z,6.40
2018-09-20T12:05:44.699Z,5.70
2018-09-20T12:08:22.000Z,6.10
2018-09-20T12:10:58.458Z,5.90
2018-09-20T12:13:32.475Z,6.25
2018-09-20T12:16:07.555Z,5.42
2018-09-20T12:18:43.697Z,6.12
2018-09-20T12:21:22.431Z,6.17
2018-09-20T12:23:59.532Z,5.78
2018-09-20T12:26:44.919Z,6.15
2018-09-20T12:29:21.302Z,6.10
2018-09-20T12:32:00.504Z,5.37
2018-09-20T12:34:44.611Z,5.40
2018-09-20T12:37:29.487Z,5.72
2018-09-20T12:40:12.726Z,5.78
2018-09-20T12:42:52.305Z,5.80
2018-09-20T12:45:26.773Z,6.10
2018-09-20T12:48:03.353Z,7.12
2018-09-20T12:50:43.197Z,6.58
2018-09-20T12:53:20.665Z,5.70
2018-09-20T12:56:04.010Z,5.95
2018-09-20T12:58:58.722Z,6.05
2018-09-20T13:01:38.071Z,5.58
2018-09-20T13:04:15.298Z,5.70
2018-09-20T13:07:15.406Z,5.65
2018-09-20T13:09:59.879Z,7.00
2018-09-20T13:12:37.845Z,6.42
2018-09-20T13:15:20.581Z,5.55
2018-09-20T13:18:15.027Z,6.72
2018-09-20T13:20:54.583Z,7.37
2018-09-20T13:23:42.470Z,5.83
2018-09-20T13:26:23.523Z,7.62
2018-09-20T13:28:59.123Z,7.60
2018-09-20T13:31:44.267Z,6.65
2018-09-20T13:34:27.612Z,6.15
2018-09-20T13:37:03.112Z,6.80
2018-09-20T13:39:44.609Z,6.35
2018-09-20T13:42:22.382Z,6.00
2018-09-20T13:45:02.907Z,6.17
2018-09-20T13:47:39.484Z,6.00
2018-09-20T13:50:16.784Z,6.40
2018-09-20T13:52:53.995Z,5.90
2018-09-20T13:55:39.333Z,6.10
2018-09-20T13:58:30.192Z,5.60
2018-09-20T14:01:09.235Z,5.85
2018-09-20T14:03:52.339Z,6.25
2018-09-20T14:06:32.469Z,6.08
2018-09-20T14:09:13.838Z,6.33
2018-09-20T14:11:54.243Z,6.00
2018-09-20T14:14:34.072Z,6.12
2018-09-20T14:17:18.953Z,5.90
2018-09-20T14:19:58.305Z,5.90
2018-09-20T14:22:40.382Z,5.80
2018-09-20T14:25:21.593Z,5.97
2018-09-20T14:27:56.109Z,6.00
2018-09-20T14:30:36.094Z,6.22
2018-09-20T14:33:20.682Z,5.70
2018-09-20T14:36:02.862Z,6.25
2018-09-20T14:38:45.526Z,5.83
2018-09-20T14:41:27.004Z,6.10
2018-09-20T14:44:00.925Z,5.67
2018-09-20T14:46:39.337Z,6.22
2018-09-20T14:49:16.786Z,6.12
2018-09-20T14:52:00.331Z,5.72
2018-09-20T14:57:31.729Z,5.92
2018-09-20T15:00:07.189Z,6.15
2018-09-20T15:02:47.166Z,5.83
2018-09-20T15:08:14.886Z,6.17
2018-09-20T15:10:55.809Z,6.15
2018-09-20T15:13:45.134Z,6.92
2018-09-20T15:16:31.864Z,7.47
2018-09-20T15:19:19.240Z,6.45
2018-09-20T15:22:02.085Z,6.22
2018-09-20T15:24:44.858Z,6.55
2018-09-20T15:27:27.031Z,6.00
2018-09-20T15:30:04.434Z,5.83
2018-09-20T15:32:41.977Z,6.12
2018-09-20T15:35:23.749Z,5.80
2018-09-20T15:38:06.077Z,6.25
2018-09-20T15:40:40.911Z,5.47
2018-09-20T15:43:19.086Z,5.50
2018-09-20T15:45:57.257Z,5.30
2018-09-20T15:48:36.602Z,5.60
2018-09-20T15:51:16.202Z,5.35
2018-09-20T15:53:55.612Z,5.12
2018-09-20T15:56:32.338Z,5.33
2018-09-20T15:59:13.694Z,5.50
2018-09-20T16:01:52.308Z,5.53
2018-09-20T16:05:31.023Z,5.60
2018-09-20T16:08:15.839Z,5.12
2018-09-20T16:10:58.794Z,4.95
2018-09-20T16:13:35.172Z,5.30
2018-09-20T16:18:56.536Z,4.97
2018-09-20T16:21:35.167Z,4.95
2018-09-20T16:24:19.270Z,5.15
2018-09-20T16:26:59.498Z,5.03
2018-09-20T16:29:46.275Z,5.12
2018-09-20T16:32:39.472Z,4.42
2018-09-20T16:35:30.571Z,5.58
2018-09-20T16:38:50.837Z,5.45
2018-09-20T16:41:38.421Z,5.15
2018-09-20T16:44:20.451Z,4.92
2018-09-20T16:47:01.833Z,5.50
2018-09-20T16:49:41.282Z,5.08
2018-09-20T16:52:25.534Z,5.90
2018-09-20T16:55:04.591Z,6.20
2018-09-20T16:57:34.132Z,5.58
2018-09-20T17:00:04.242Z,5.85
2018-09-20T17:02:33.239Z,5.80
2018-09-20T17:05:02.262Z,5.67
2018-09-20T17:07:31.257Z,5.37
2018-09-20T17:10:00.260Z,5.83
2018-09-20T17:12:29.272Z,6.08
2018-09-20T17:14:58.617Z,5.78
2018-09-20T17:17:27.505Z,5.80
2018-09-20T17:19:56.578Z,5.87
2018-09-20T17:22:25.641Z,6.20
2018-09-20T17:24:54.687Z,5.85
2018-09-20T17:27:24.006Z,6.20
2018-09-20T17:29:53.043Z,6.10
2018-09-20T17:32:22.119Z,5.95
2018-09-20T17:34:51.951Z,6.25
2018-09-20T17:37:22.284Z,5.85
2018-09-20T17:39:53.272Z,6.50
2018-09-20T17:42:23.556Z,6.67
2018-09-20T17:44:52.571Z,6.17
2018-09-20T17:47:21.677Z,6.15
2018-09-20T17:49:50.713Z,5.92
2018-09-20T17:52:20.907Z,5.87
2018-09-20T17:54:50.339Z,6.25
2018-09-20T17:57:20.235Z,5.90
2018-09-20T17:59:49.243Z,6.30
2018-09-20T18:02:18.337Z,6.35
2018-09-20T18:04:47.340Z,5.72
2018-09-20T18:07:16.415Z,6.33
2018-09-20T18:09:45.435Z,5.83
2018-09-20T18:12:14.441Z,5.83
2018-09-20T18:14:43.520Z,5.97
2018-09-20T18:17:12.545Z,6.33
2018-09-20T18:19:41.628Z,5.78
2018-09-20T18:22:10.620Z,6.40
2018-09-20T18:24:39.852Z,6.60
2018-09-20T18:27:09.016Z,6.22
2018-09-20T18:29:38.027Z,5.87
2018-09-20T18:32:07.084Z,5.97
2018-09-20T18:34:36.088Z,6.10
2018-09-20T18:37:05.108Z,7.92
2018-09-20T18:39:34.134Z,8.03
2018-09-20T18:42:03.175Z,7.28
2018-09-20T18:44:32.259Z,7.40
2018-09-20T18:47:01.368Z,7.03
2018-09-20T18:49:30.384Z,6.45
2018-09-20T18:51:59.396Z,6.58
2018-09-20T18:54:28.428Z,6.10
2018-09-20T18:56:57.443Z,6.73
2018-09-20T18:59:26.447Z,6.17
2018-09-20T19:01:55.532Z,6.00
2018-09-20T19:04:24.563Z,6.27
2018-09-20T19:06:53.631Z,6.00
2018-09-20T19:09:22.635Z,5.53
2018-09-20T19:11:51.648Z,5.83
2018-09-20T19:14:20.699Z,6.40
2018-09-20T19:16:49.703Z,6.30
2018-09-20T19:19:18.703Z,6.33
2018-09-20T19:21:47.759Z,6.30
2018-09-20T19:24:16.763Z,6.50
2018-09-20T19:26:45.892Z,6.67
2018-09-20T19:29:14.912Z,6.07
2018-09-20T19:31:43.924Z,6.60
2018-09-20T19:34:12.930Z,6.07
2018-09-20T19:36:41.942Z,5.93
2018-09-20T19:39:11.923Z,5.93
2018-09-20T19:41:40.959Z,6.10
2018-09-20T19:44:09.976Z,6.57
2018-09-20T19:46:39.006Z,6.67
2018-09-20T19:49:08.015Z,6.30
2018-09-20T19:51:37.050Z,6.30
2018-09-20T19:54:06.060Z,6.67
2018-09-20T19:56:35.152Z,6.47
2018-09-20T19:59:04.154Z,6.20
2018-09-20T20:01:33.308Z,6.53
2018-09-20T20:04:02.311Z,6.33
2018-09-20T20:06:31.349Z,6.57
2018-09-20T20:09:00.404Z,6.23
2018-09-20T20:11:29.411Z,6.77
2018-09-20T20:13:58.419Z,6.97
2018-09-20T20:16:27.431Z,6.73
2018-09-20T20:18:56.426Z,6.30
2018-09-20T20:21:25.438Z,6.47
2018-09-20T20:23:54.807Z,6.67
2018-09-20T20:26:23.868Z,6.20
2018-09-20T20:28:52.859Z,6.83
2018-09-20T20:31:21.894Z,6.67
2018-09-20T20:33:50.895Z,6.60
2018-09-20T20:36:19.916Z,6.53
2018-09-20T20:38:48.907Z,7.00
2018-09-20T20:41:17.915Z,6.40
2018-09-20T20:43:46.908Z,6.50
2018-09-20T20:46:15.898Z,6.90
2018-09-20T20:48:45.106Z,6.53
2018-09-20T20:51:14.116Z,6.53
2018-09-20T20:53:43.117Z,6.47
2018-09-20T20:56:12.231Z,6.17
2018-09-20T20:58:41.263Z,7.10
2018-09-20T21:01:15.531Z,6.60
2018-09-20T21:03:44.561Z,6.30
2018-09-20T21:06:13.576Z,6.83
2018-09-20T21:08:42.775Z,6.73
2018-09-20T21:11:11.775Z,6.50
2018-09-20T21:13:40.960Z,7.20
2018-09-20T21:16:09.981Z,6.37
2018-09-20T21:18:39.206Z,6.30
2018-09-20T21:21:08.203Z,6.57
2018-09-20T21:23:37.223Z,6.30
2018-09-20T21:26:06.334Z,6.90
2018-09-20T21:28:35.393Z,6.30
2018-09-20T21:31:04.434Z,6.67
2018-09-20T21:33:33.453Z,6.00
2018-09-20T21:36:02.479Z,6.27
2018-09-20T21:38:31.499Z,6.10
2018-09-20T21:41:00.500Z,6.27
2018-09-20T21:43:29.818Z,6.40
2018-09-20T21:45:58.823Z,5.80
2018-09-20T21:48:27.881Z,6.53
2018-09-20T21:50:56.998Z,6.50
2018-09-20T21:53:25.963Z,6.47
2018-09-20T21:55:54.987Z,6.37
2018-09-20T21:58:24.007Z,6.63
2018-09-20T22:00:58.465Z,6.30
2018-09-20T22:03:27.492Z,6.03
2018-09-20T22:05:56.568Z,6.07
2018-09-20T22:08:25.723Z,5.80
2018-09-20T22:10:54.875Z,6.50
2018-09-20T22:13:23.907Z,6.10
2018-09-20T22:15:52.911Z,6.43
2018-09-20T22:18:21.939Z,6.40
2018-09-20T22:20:50.959Z,6.27
2018-09-20T22:23:20.074Z,6.13
2018-09-20T22:25:49.087Z,6.33
2018-09-20T22:28:18.220Z,5.97
2018-09-20T22:30:47.231Z,6.70
2018-09-20T22:33:16.254Z,6.67
2018-09-20T22:35:45.260Z,6.20
2018-09-20T22:38:14.279Z,6.40
2018-09-20T22:40:43.823Z,6.30
2018-09-20T22:43:12.871Z,6.50
2018-09-20T22:45:41.875Z,6.50
2018-09-20T22:48:10.907Z,6.80
2018-09-20T22:50:39.964Z,6.20
2018-09-20T22:53:08.991Z,6.97
2018-09-20T22:55:38.004Z,6.77
2018-09-20T22:58:07.051Z,6.50
2018-09-20T23:00:36.072Z,6.20
2018-09-20T23:03:05.091Z,6.13
2018-09-20T23:05:34.154Z,6.27
2018-09-20T23:08:03.159Z,6.33
2018-09-20T23:10:32.180Z,6.43
2018-09-20T23:13:01.187Z,6.50
2018-09-20T23:15:30.231Z,6.80
2018-09-20T23:17:59.238Z,6.63
2018-09-20T23:20:28.287Z,6.67
2018-09-20T23:22:57.277Z,6.80
2018-09-20T23:25:26.326Z,6.37
2018-09-20T23:27:55.336Z,6.27
2018-09-20T23:30:24.428Z,6.50
2018-09-20T23:32:53.418Z,6.60
2018-09-20T23:35:22.439Z,6.17
2018-09-20T23:37:51.442Z,6.50
2018-09-20T23:40:20.463Z,6.43
2018-09-20T23:42:49.468Z,6.57
2018-09-20T23:45:18.487Z,6.17
2018-09-20T23:47:47.495Z,6.17
2018-09-20T23:50:16.524Z,6.70
2018-09-20T23:52:45.719Z,6.40
2018-09-20T23:55:14.740Z,6.70
2018-09-20T23:57:43.743Z,6.57
